sensor_id;sensor_type;location;lat;lon;timestamp;pressure;altitude;pressure_sealevel;temperature;humidity
75146;BME280;63641;46.526;24.612;2023-12-04T00:01:17;97920.28;;;0.11;66.82
75146;BME280;63641;46.526;24.612;2023-12-04T00:03:44;97923.16;;;0.09;66.62
75146;BME280;63641;46.526;24.612;2023-12-04T00:06:12;97906.34;;;0.02;66.54
75146;BME280;63641;46.526;24.612;2023-12-04T00:08:39;97929.25;;;0.03;66.20
75146;BME280;63641;46.526;24.612;2023-12-04T00:11:07;97925.56;;;-0.03;66.47
75146;BME280;63641;46.526;24.612;2023-12-04T00:13:33;97937.66;;;0.00;66.65
75146;BME280;63641;46.526;24.612;2023-12-04T00:16:01;97936.00;;;-0.01;66.27
75146;BME280;63641;46.526;24.612;2023-12-04T00:18:28;97935.00;;;0.00;66.54
75146;BME280;63641;46.526;24.612;2023-12-04T00:20:56;97929.06;;;0.05;66.39
75146;BME280;63641;46.526;24.612;2023-12-04T00:23:22;97939.91;;;0.03;66.08
75146;BME280;63641;46.526;24.612;2023-12-04T00:25:49;97944.44;;;0.09;65.98
75146;BME280;63641;46.526;24.612;2023-12-04T00:28:16;97946.66;;;0.06;66.14
75146;BME280;63641;46.526;24.612;2023-12-04T00:30:43;97946.66;;;0.06;65.91
75146;BME280;63641;46.526;24.612;2023-12-04T00:33:10;97954.25;;;0.09;65.93
75146;BME280;63641;46.526;24.612;2023-12-04T00:35:37;97955.69;;;0.05;66.07
75146;BME280;63641;46.526;24.612;2023-12-04T00:38:04;97955.03;;;0.03;66.17
75146;BME280;63641;46.526;24.612;2023-12-04T00:40:31;97968.59;;;0.08;66.17
75146;BME280;63641;46.526;24.612;2023-12-04T00:42:57;97964.06;;;0.02;66.03
75146;BME280;63641;46.526;24.612;2023-12-04T00:45:24;97970.81;;;0.04;65.91
75146;BME280;63641;46.526;24.612;2023-12-04T00:47:51;97965.47;;;-0.03;66.12
75146;BME280;63641;46.526;24.612;2023-12-04T00:50:18;97978.16;;;0.02;65.87
75146;BME280;63641;46.526;24.612;2023-12-04T00:52:45;97975.91;;;-0.01;65.99
75146;BME280;63641;46.526;24.612;2023-12-04T00:55:12;97973.84;;;-0.06;65.88
75146;BME280;63641;46.526;24.612;2023-12-04T00:57:39;97979.75;;;-0.10;65.82
75146;BME280;63641;46.526;24.612;2023-12-04T01:00:07;97974.19;;;-0.15;65.89
75146;BME280;63641;46.526;24.612;2023-12-04T01:02:35;97992.88;;;-0.02;65.75
75146;BME280;63641;46.526;24.612;2023-12-04T01:05:01;97989.41;;;-0.03;65.50
75146;BME280;63641;46.526;24.612;2023-12-04T01:07:29;97986.94;;;-0.04;65.30
75146;BME280;63641;46.526;24.612;2023-12-04T01:09:56;97983.22;;;-0.10;65.61
75146;BME280;63641;46.526;24.612;2023-12-04T01:12:22;97988.78;;;-0.05;65.35
75146;BME280;63641;46.526;24.612;2023-12-04T01:14:49;97995.94;;;-0.05;65.38
75146;BME280;63641;46.526;24.612;2023-12-04T01:17:16;97992.81;;;-0.15;65.26
75146;BME280;63641;46.526;24.612;2023-12-04T01:19:43;98005.84;;;-0.27;65.37
75146;BME280;63641;46.526;24.612;2023-12-04T01:22:10;98000.47;;;-0.34;65.66
75146;BME280;63641;46.526;24.612;2023-12-04T01:24:36;97975.22;;;-0.51;65.86
75146;BME280;63641;46.526;24.612;2023-12-04T01:27:03;98003.34;;;-0.35;65.46
75146;BME280;63641;46.526;24.612;2023-12-04T01:29:30;98007.03;;;-0.36;65.45
75146;BME280;63641;46.526;24.612;2023-12-04T01:31:58;98000.84;;;-0.43;65.48
75146;BME280;63641;46.526;24.612;2023-12-04T01:34:26;98008.03;;;-0.37;65.58
75146;BME280;63641;46.526;24.612;2023-12-04T01:36:53;98008.44;;;-0.34;65.23
75146;BME280;63641;46.526;24.612;2023-12-04T01:39:20;98007.19;;;-0.38;65.14
75146;BME280;63641;46.526;24.612;2023-12-04T01:41:47;98001.72;;;-0.36;64.93
75146;BME280;63641;46.526;24.612;2023-12-04T01:44:14;97995.75;;;-0.38;64.74
75146;BME280;63641;46.526;24.612;2023-12-04T01:46:41;97997.81;;;-0.34;64.81
75146;BME280;63641;46.526;24.612;2023-12-04T01:49:09;98004.00;;;-0.27;64.44
75146;BME280;63641;46.526;24.612;2023-12-04T01:51:37;98009.69;;;-0.30;64.74
75146;BME280;63641;46.526;24.612;2023-12-04T01:54:04;97994.94;;;-0.39;64.51
75146;BME280;63641;46.526;24.612;2023-12-04T01:56:33;98007.84;;;-0.36;64.82
75146;BME280;63641;46.526;24.612;2023-12-04T01:59:01;98003.34;;;-0.35;64.75
75146;BME280;63641;46.526;24.612;2023-12-04T02:01:28;98010.13;;;-0.33;64.43
75146;BME280;63641;46.526;24.612;2023-12-04T02:04:02;98001.94;;;-0.31;64.45
75146;BME280;63641;46.526;24.612;2023-12-04T02:06:30;98003.81;;;-0.25;64.24
75146;BME280;63641;46.526;24.612;2023-12-04T02:08:58;98012.22;;;-0.21;64.04
75146;BME280;63641;46.526;24.612;2023-12-04T02:11:25;98005.25;;;-0.22;64.28
75146;BME280;63641;46.526;24.612;2023-12-04T02:13:52;98008.31;;;-0.26;63.93
75146;BME280;63641;46.526;24.612;2023-12-04T02:16:23;98000.34;;;-0.26;63.90
75146;BME280;63641;46.526;24.612;2023-12-04T02:18:52;98007.09;;;-0.23;64.17
75146;BME280;63641;46.526;24.612;2023-12-04T02:21:20;98003.03;;;-0.19;63.91
75146;BME280;63641;46.526;24.612;2023-12-04T02:23:52;98007.91;;;-0.22;63.92
75146;BME280;63641;46.526;24.612;2023-12-04T02:26:34;98000.69;;;-0.35;63.67
75146;BME280;63641;46.526;24.612;2023-12-04T02:29:07;97993.31;;;-0.33;64.04
75146;BME280;63641;46.526;24.612;2023-12-04T02:31:39;98008.72;;;-0.29;63.71
75146;BME280;63641;46.526;24.612;2023-12-04T02:34:08;97994.94;;;-0.39;63.71
75146;BME280;63641;46.526;24.612;2023-12-04T02:36:37;98008.44;;;-0.34;63.96
75146;BME280;63641;46.526;24.612;2023-12-04T02:39:05;98010.28;;;-0.34;64.04
75146;BME280;63641;46.526;24.612;2023-12-04T02:41:32;98011.75;;;-0.32;63.83
75146;BME280;63641;46.526;24.612;2023-12-04T02:44:00;98009.91;;;-0.31;63.57
75146;BME280;63641;46.526;24.612;2023-12-04T02:46:28;98001.13;;;-0.32;63.45
75146;BME280;63641;46.526;24.612;2023-12-04T02:48:56;98002.38;;;-0.28;63.75
75146;BME280;63641;46.526;24.612;2023-12-04T02:51:22;98003.44;;;-0.22;63.75
75146;BME280;63641;46.526;24.612;2023-12-04T02:53:52;97999.53;;;-0.19;63.72
75146;BME280;63641;46.526;24.612;2023-12-04T02:56:20;98004.25;;;-0.21;63.29
75146;BME280;63641;46.526;24.612;2023-12-04T02:58:46;98003.03;;;-0.19;63.65
75146;BME280;63641;46.526;24.612;2023-12-04T03:01:13;97993.41;;;-0.20;63.44
75146;BME280;63641;46.526;24.612;2023-12-04T03:03:40;98003.28;;;-0.14;63.66
75146;BME280;63641;46.526;24.612;2023-12-04T03:06:07;98017.22;;;-0.05;63.50
75146;BME280;63641;46.526;24.612;2023-12-04T03:08:34;98012.53;;;-0.03;63.12
75146;BME280;63641;46.526;24.612;2023-12-04T03:11:02;98011.13;;;0.01;63.21
75146;BME280;63641;46.526;24.612;2023-12-04T03:13:30;98012.75;;;0.02;63.50
75146;BME280;63641;46.526;24.612;2023-12-04T03:15:58;98007.44;;;0.02;63.34
75146;BME280;63641;46.526;24.612;2023-12-04T03:18:25;98014.63;;;0.08;63.12
75146;BME280;63641;46.526;24.612;2023-12-04T03:20:52;98010.13;;;0.09;63.26
75146;BME280;63641;46.526;24.612;2023-12-04T03:23:20;98013.22;;;0.12;63.19
75146;BME280;63641;46.526;24.612;2023-12-04T03:25:47;98016.50;;;0.14;63.61
75146;BME280;63641;46.526;24.612;2023-12-04T03:28:14;98013.66;;;0.16;63.64
75146;BME280;63641;46.526;24.612;2023-12-04T03:30:42;98007.91;;;0.12;63.64
75146;BME280;63641;46.526;24.612;2023-12-04T03:33:12;98018.75;;;0.17;63.63
75146;BME280;63641;46.526;24.612;2023-12-04T03:35:39;98019.78;;;0.16;63.21
75146;BME280;63641;46.526;24.612;2023-12-04T03:38:06;98015.50;;;0.15;63.25
75146;BME280;63641;46.526;24.612;2023-12-04T03:40:33;98016.50;;;0.14;63.23
75146;BME280;63641;46.526;24.612;2023-12-04T03:43:00;98015.25;;;0.10;63.42
75146;BME280;63641;46.526;24.612;2023-12-04T03:45:28;98020.81;;;0.15;63.57
75146;BME280;63641;46.526;24.612;2023-12-04T03:47:56;98030.03;;;0.19;63.31
75146;BME280;63641;46.526;24.612;2023-12-04T03:50:22;98030.88;;;0.20;63.55
75146;BME280;63641;46.526;24.612;2023-12-04T03:52:49;98025.53;;;0.20;63.49
75146;BME280;63641;46.526;24.612;2023-12-04T03:55:16;98033.53;;;0.20;63.47
75146;BME280;63641;46.526;24.612;2023-12-04T03:57:45;98024.47;;;0.14;63.47
75146;BME280;63641;46.526;24.612;2023-12-04T04:00:12;98027.56;;;0.11;63.35
75146;BME280;63641;46.526;24.612;2023-12-04T04:02:43;98036.78;;;0.15;63.58
75146;BME280;63641;46.526;24.612;2023-12-04T04:05:10;98031.03;;;0.12;63.47
75146;BME280;63641;46.526;24.612;2023-12-04T04:07:40;98045.16;;;0.12;63.72
75146;BME280;63641;46.526;24.612;2023-12-04T04:10:08;98044.13;;;0.13;63.64
75146;BME280;63641;46.526;24.612;2023-12-04T04:12:35;98046.63;;;0.15;63.53
75146;BME280;63641;46.526;24.612;2023-12-04T04:15:03;98044.53;;;0.10;63.92
75146;BME280;63641;46.526;24.612;2023-12-04T04:17:31;98038.38;;;0.10;63.35
75146;BME280;63641;46.526;24.612;2023-12-04T04:20:00;98040.81;;;0.05;63.48
75146;BME280;63641;46.526;24.612;2023-12-04T04:22:27;98041.22;;;0.02;63.39
75146;BME280;63641;46.526;24.612;2023-12-04T04:24:55;98042.41;;;-0.01;63.52
75146;BME280;63641;46.526;24.612;2023-12-04T04:27:23;98041.00;;;0.03;63.39
75146;BME280;63641;46.526;24.612;2023-12-04T04:29:51;98035.69;;;0.03;63.47
75146;BME280;63641;46.526;24.612;2023-12-04T04:32:17;98024.19;;;-0.04;63.54
75146;BME280;63641;46.526;24.612;2023-12-04T04:34:44;98028.50;;;-0.03;63.41
75146;BME280;63641;46.526;24.612;2023-12-04T04:37:12;98030.34;;;0.03;63.18
75146;BME280;63641;46.526;24.612;2023-12-04T04:39:40;98034.03;;;0.02;63.63
75146;BME280;63641;46.526;24.612;2023-12-04T04:42:07;98037.34;;;0.04;63.60
75146;BME280;63641;46.526;24.612;2023-12-04T04:44:33;98046.31;;;0.03;63.50
75146;BME280;63641;46.526;24.612;2023-12-04T04:47:02;98039.75;;;-0.01;63.63
75146;BME280;63641;46.526;24.612;2023-12-04T04:49:29;98043.06;;;0.01;63.81
75146;BME280;63641;46.526;24.612;2023-12-04T04:51:56;98044.47;;;0.04;63.73
75146;BME280;63641;46.526;24.612;2023-12-04T04:54:23;98040.56;;;-0.01;63.69
75146;BME280;63641;46.526;24.612;2023-12-04T04:56:50;98051.63;;;0.03;63.66
75146;BME280;63641;46.526;24.612;2023-12-04T04:59:17;98034.81;;;-0.04;63.83
75146;BME280;63641;46.526;24.612;2023-12-04T05:01:45;98054.28;;;-0.04;63.68
75146;BME280;63641;46.526;24.612;2023-12-04T05:04:11;98051.38;;;-0.09;63.49
75146;BME280;63641;46.526;24.612;2023-12-04T05:06:38;98034.50;;;-0.22;63.98
75146;BME280;63641;46.526;24.612;2023-12-04T05:09:05;98040.06;;;-0.17;63.71
75146;BME280;63641;46.526;24.612;2023-12-04T05:11:32;98047.47;;;-0.13;63.54
75146;BME280;63641;46.526;24.612;2023-12-04T05:13:59;98039.69;;;-0.14;63.76
75146;BME280;63641;46.526;24.612;2023-12-04T05:16:25;98055.88;;;-0.09;63.50
75146;BME280;63641;46.526;24.612;2023-12-04T05:18:52;98052.81;;;-0.06;63.78
75146;BME280;63641;46.526;24.612;2023-12-04T05:21:19;98067.16;;;-0.07;64.27
75146;BME280;63641;46.526;24.612;2023-12-04T05:23:46;98070.00;;;-0.09;63.82
75146;BME280;63641;46.526;24.612;2023-12-04T05:26:13;98064.63;;;-0.15;64.07
75146;BME280;63641;46.526;24.612;2023-12-04T05:28:40;98061.75;;;-0.20;63.99
75146;BME280;63641;46.526;24.612;2023-12-04T05:31:07;98076.09;;;-0.15;63.96
75146;BME280;63641;46.526;24.612;2023-12-04T05:33:33;98072.59;;;-0.15;63.85
75146;BME280;63641;46.526;24.612;2023-12-04T05:36:02;98070.75;;;-0.21;64.04
75146;BME280;63641;46.526;24.612;2023-12-04T05:38:29;98075.25;;;-0.15;63.83
75146;BME280;63641;46.526;24.612;2023-12-04T05:40:56;98074.00;;;-0.19;63.87
75146;BME280;63641;46.526;24.612;2023-12-04T05:43:22;98075.84;;;-0.20;64.31
75146;BME280;63641;46.526;24.612;2023-12-04T05:45:50;98079.72;;;-0.22;64.33
75146;BME280;63641;46.526;24.612;2023-12-04T05:48:18;98079.72;;;-0.22;64.29
75146;BME280;63641;46.526;24.612;2023-12-04T05:50:45;98076.78;;;-0.34;64.23
75146;BME280;63641;46.526;24.612;2023-12-04T05:53:12;98068.50;;;-0.46;64.29
75146;BME280;63641;46.526;24.612;2023-12-04T05:55:39;98088.94;;;-0.46;64.83
75146;BME280;63641;46.526;24.612;2023-12-04T05:58:06;98091.63;;;-0.46;64.84
75146;BME280;63641;46.526;24.612;2023-12-04T06:00:33;98091.22;;;-0.43;64.52
75146;BME280;63641;46.526;24.612;2023-12-04T06:02:59;98086.91;;;-0.44;64.26
75146;BME280;63641;46.526;24.612;2023-12-04T06:05:26;98077.88;;;-0.50;64.46
75146;BME280;63641;46.526;24.612;2023-12-04T06:07:54;98094.28;;;-0.46;64.74
75146;BME280;63641;46.526;24.612;2023-12-04T06:10:21;98094.00;;;-0.52;64.26
75146;BME280;63641;46.526;24.612;2023-12-04T06:12:48;98093.97;;;-0.58;64.35
75146;BME280;63641;46.526;24.612;2023-12-04T06:15:15;98094.09;;;-0.66;64.46
75146;BME280;63641;46.526;24.612;2023-12-04T06:17:42;98102.69;;;-0.64;64.49
75146;BME280;63641;46.526;24.612;2023-12-04T06:20:09;98105.13;;;-0.69;64.37
75146;BME280;63641;46.526;24.612;2023-12-04T06:22:39;98100.19;;;-0.73;64.46
75146;BME280;63641;46.526;24.612;2023-12-04T06:25:06;98117.00;;;-0.65;64.59
75146;BME280;63641;46.526;24.612;2023-12-04T06:27:34;98122.94;;;-0.63;64.40
75146;BME280;63641;46.526;24.612;2023-12-04T06:30:02;98124.41;;;-0.61;64.28
75146;BME280;63641;46.526;24.612;2023-12-04T06:32:29;98127.25;;;-0.62;64.32
75146;BME280;63641;46.526;24.612;2023-12-04T06:34:57;98132.59;;;-0.62;63.90
75146;BME280;63641;46.526;24.612;2023-12-04T06:37:24;98135.25;;;-0.62;64.24
75146;BME280;63641;46.526;24.612;2023-12-04T06:39:52;98130.53;;;-0.60;63.86
75146;BME280;63641;46.526;24.612;2023-12-04T06:42:20;98136.69;;;-0.60;63.91
75146;BME280;63641;46.526;24.612;2023-12-04T06:44:47;98133.63;;;-0.57;63.94
75146;BME280;63641;46.526;24.612;2023-12-04T06:47:17;98142.25;;;-0.55;63.75
75146;BME280;63641;46.526;24.612;2023-12-04T06:49:44;98136.75;;;-0.53;63.83
75146;BME280;63641;46.526;24.612;2023-12-04T06:52:12;98130.66;;;-0.47;63.50
75146;BME280;63641;46.526;24.612;2023-12-04T06:54:39;98129.28;;;-0.43;63.68
75146;BME280;63641;46.526;24.612;2023-12-04T06:57:06;98133.19;;;-0.39;63.59
75146;BME280;63641;46.526;24.612;2023-12-04T06:59:33;98149.28;;;-0.26;63.26
75146;BME280;63641;46.526;24.612;2023-12-04T07:02:00;98152.75;;;-0.25;63.43
75146;BME280;63641;46.526;24.612;2023-12-04T07:04:27;98157.47;;;-0.20;63.02
75146;BME280;63641;46.526;24.612;2023-12-04T07:06:54;98156.84;;;-0.22;63.14
75146;BME280;63641;46.526;24.612;2023-12-04T07:09:21;98159.47;;;-0.29;63.36
75146;BME280;63641;46.526;24.612;2023-12-04T07:11:49;98164.13;;;-0.31;63.25
75146;BME280;63641;46.526;24.612;2023-12-04T07:14:15;98167.63;;;-0.31;63.04
75146;BME280;63641;46.526;24.612;2023-12-04T07:16:44;98166.59;;;-0.30;63.47
75146;BME280;63641;46.526;24.612;2023-12-04T07:19:11;98166.81;;;-0.31;63.11
75146;BME280;63641;46.526;24.612;2023-12-04T07:21:39;98165.41;;;-0.27;62.90
75146;BME280;63641;46.526;24.612;2023-12-04T07:24:07;98161.72;;;-0.26;63.09
75146;BME280;63641;46.526;24.612;2023-12-04T07:26:35;98160.78;;;-0.18;62.68
75146;BME280;63641;46.526;24.612;2023-12-04T07:29:02;98157.09;;;-0.17;62.58
75146;BME280;63641;46.526;24.612;2023-12-04T07:31:30;98166.56;;;-0.08;62.76
75146;BME280;63641;46.526;24.612;2023-12-04T07:33:57;98168.47;;;-0.02;62.31
75146;BME280;63641;46.526;24.612;2023-12-04T07:36:27;98172.41;;;0.02;62.57
75146;BME280;63641;46.526;24.612;2023-12-04T07:38:54;98174.47;;;0.07;62.33
75146;BME280;63641;46.526;24.612;2023-12-04T07:41:20;98173.72;;;0.13;62.09
75146;BME280;63641;46.526;24.612;2023-12-04T07:43:48;98168.44;;;0.19;61.92
75146;BME280;63641;46.526;24.612;2023-12-04T07:46:15;98167.63;;;0.26;61.55
75146;BME280;63641;46.526;24.612;2023-12-04T07:48:42;98165.22;;;0.31;61.84
75146;BME280;63641;46.526;24.612;2023-12-04T07:51:10;98171.44;;;0.38;61.72
75146;BME280;63641;46.526;24.612;2023-12-04T07:53:37;98171.84;;;0.41;61.17
75146;BME280;63641;46.526;24.612;2023-12-04T07:56:05;98174.31;;;0.43;61.17
75146;BME280;63641;46.526;24.612;2023-12-04T07:58:32;98174.69;;;0.40;61.13
75146;BME280;63641;46.526;24.612;2023-12-04T08:00:59;98174.69;;;0.40;60.92
75146;BME280;63641;46.526;24.612;2023-12-04T08:03:27;98183.94;;;0.44;60.86
75146;BME280;63641;46.526;24.612;2023-12-04T08:05:54;98186.84;;;0.49;60.58
75146;BME280;63641;46.526;24.612;2023-12-04T08:08:20;98189.75;;;0.54;60.76
75146;BME280;63641;46.526;24.612;2023-12-04T08:10:48;98179.28;;;0.53;60.50
75146;BME280;63641;46.526;24.612;2023-12-04T08:13:15;98188.97;;;0.60;60.21
75146;BME280;63641;46.526;24.612;2023-12-04T08:15:43;98186.69;;;0.57;60.27
75146;BME280;63641;46.526;24.612;2023-12-04T08:18:11;98192.00;;;0.57;60.49
75146;BME280;63641;46.526;24.612;2023-12-04T08:20:40;98190.38;;;0.56;60.18
75146;BME280;63641;46.526;24.612;2023-12-04T08:23:08;98196.56;;;0.63;60.24
75146;BME280;63641;46.526;24.612;2023-12-04T08:25:35;98183.25;;;0.63;60.09
75146;BME280;63641;46.526;24.612;2023-12-04T08:28:06;98188.81;;;0.68;59.98
75146;BME280;63641;46.526;24.612;2023-12-04T08:30:33;98192.53;;;0.74;59.53
75146;BME280;63641;46.526;24.612;2023-12-04T08:33:00;98183.69;;;0.73;59.67
75146;BME280;63641;46.526;24.612;2023-12-04T08:35:27;98196.47;;;0.85;59.71
75146;BME280;63641;46.526;24.612;2023-12-04T08:37:54;98189.31;;;0.85;59.43
75146;BME280;63641;46.526;24.612;2023-12-04T08:40:22;98193.66;;;0.93;59.43
75146;BME280;63641;46.526;24.612;2023-12-04T08:42:49;98194.25;;;0.95;59.06
75146;BME280;63641;46.526;24.612;2023-12-04T08:45:16;98197.94;;;0.94;59.38
75146;BME280;63641;46.526;24.612;2023-12-04T08:47:45;98193.25;;;0.96;59.23
75146;BME280;63641;46.526;24.612;2023-12-04T08:50:13;98185.25;;;0.96;58.87
75146;BME280;63641;46.526;24.612;2023-12-04T08:52:40;98191.84;;;1.00;58.93
75146;BME280;63641;46.526;24.612;2023-12-04T08:55:09;98179.31;;;1.01;59.17
75146;BME280;63641;46.526;24.612;2023-12-04T08:57:37;98180.34;;;1.00;59.03
75146;BME280;63641;46.526;24.612;2023-12-04T09:00:05;98182.59;;;1.03;58.93
75146;BME280;63641;46.526;24.612;2023-12-04T09:02:32;98159.63;;;0.95;58.86
75146;BME280;63641;46.526;24.612;2023-12-04T09:05:04;98169.69;;;1.06;58.54
75146;BME280;63641;46.526;24.612;2023-12-04T09:07:31;98173.63;;;1.17;58.63
75146;BME280;63641;46.526;24.612;2023-12-04T09:10:01;98181.25;;;1.27;58.31
75146;BME280;63641;46.526;24.612;2023-12-04T09:12:36;98163.19;;;1.29;58.02
75146;BME280;63641;46.526;24.612;2023-12-04T09:15:05;98171.03;;;1.43;57.65
75146;BME280;63641;46.526;24.612;2023-12-04T09:17:34;98164.28;;;1.54;57.44
75146;BME280;63641;46.526;24.612;2023-12-04T09:20:05;98158.34;;;1.65;57.24
75146;BME280;63641;46.526;24.612;2023-12-04T09:22:33;98145.03;;;1.79;57.08
75146;BME280;63641;46.526;24.612;2023-12-04T09:25:17;98125.13;;;1.81;56.88
75146;BME280;63641;46.526;24.612;2023-12-04T09:27:44;98150.97;;;2.01;56.32
75146;BME280;63641;46.526;24.612;2023-12-04T09:30:12;98148.31;;;1.94;55.53
75146;BME280;63641;46.526;24.612;2023-12-04T09:32:39;98141.53;;;2.05;55.63
75146;BME280;63641;46.526;24.612;2023-12-04T09:35:06;98133.72;;;2.23;55.47
75146;BME280;63641;46.526;24.612;2023-12-04T09:37:33;98138.41;;;2.41;54.90
75146;BME280;63641;46.526;24.612;2023-12-04T09:40:01;98119.28;;;2.44;54.97
75146;BME280;63641;46.526;24.612;2023-12-04T09:42:30;98120.91;;;2.52;54.72
75146;BME280;63641;46.526;24.612;2023-12-04T09:44:58;98122.34;;;2.54;54.26
75146;BME280;63641;46.526;24.612;2023-12-04T09:47:25;98134.03;;;2.66;54.12
75146;BME280;63641;46.526;24.612;2023-12-04T09:49:53;98117.16;;;2.73;53.91
75146;BME280;63641;46.526;24.612;2023-12-04T09:52:22;98122.03;;;2.82;53.91
75146;BME280;63641;46.526;24.612;2023-12-04T09:54:50;98128.84;;;2.72;53.56
75146;BME280;63641;46.526;24.612;2023-12-04T09:57:17;98116.56;;;2.57;53.59
75146;BME280;63641;46.526;24.612;2023-12-04T09:59:45;98121.72;;;2.52;53.74
75146;BME280;63641;46.526;24.612;2023-12-04T10:02:13;98125.84;;;2.48;53.76
75146;BME280;63641;46.526;24.612;2023-12-04T10:04:42;98135.91;;;2.46;53.67
75146;BME280;63641;46.526;24.612;2023-12-04T10:07:09;98129.16;;;2.37;53.75
75146;BME280;63641;46.526;24.612;2023-12-04T10:09:35;98136.19;;;2.25;53.85
75146;BME280;63641;46.526;24.612;2023-12-04T10:12:03;98120.19;;;2.05;54.18
75146;BME280;63641;46.526;24.612;2023-12-04T10:14:32;98119.16;;;1.99;54.15
75146;BME280;63641;46.526;24.612;2023-12-04T10:16:59;98112.59;;;1.82;54.04
75146;BME280;63641;46.526;24.612;2023-12-04T10:19:27;98124.50;;;1.86;54.31
75146;BME280;63641;46.526;24.612;2023-12-04T10:21:58;98121.66;;;1.81;54.61
75146;BME280;63641;46.526;24.612;2023-12-04T10:24:34;98112.19;;;1.72;54.66
75146;BME280;63641;46.526;24.612;2023-12-04T10:27:08;98100.91;;;1.69;54.67
75146;BME280;63641;46.526;24.612;2023-12-04T10:29:47;98098.66;;;1.73;54.45
75146;BME280;63641;46.526;24.612;2023-12-04T10:32:18;98085.69;;;1.77;54.42
75146;BME280;63641;46.526;24.612;2023-12-04T10:34:49;98082.81;;;1.98;53.94
75146;BME280;63641;46.526;24.612;2023-12-04T10:37:16;98080.31;;;2.16;53.59
75146;BME280;63641;46.526;24.612;2023-12-04T10:39:51;98088.09;;;2.31;53.51
75146;BME280;63641;46.526;24.612;2023-12-04T10:42:25;98097.50;;;2.47;53.04
75146;BME280;63641;46.526;24.612;2023-12-04T10:44:55;98095.41;;;2.56;52.75
75146;BME280;63641;46.526;24.612;2023-12-04T10:47:23;98089.28;;;2.49;52.70
75146;BME280;63641;46.526;24.612;2023-12-04T10:49:50;98100.97;;;2.54;52.81
75146;BME280;63641;46.526;24.612;2023-12-04T10:52:18;98107.56;;;2.52;52.11
75146;BME280;63641;46.526;24.612;2023-12-04T10:54:48;98096.28;;;2.43;52.04
75146;BME280;63641;46.526;24.612;2023-12-04T10:57:21;98092.13;;;2.54;51.88
75146;BME280;63641;46.526;24.612;2023-12-04T10:59:51;98097.19;;;2.69;51.55
75146;BME280;63641;46.526;24.612;2023-12-04T11:02:26;98098.84;;;2.76;51.29
75146;BME280;63641;46.526;24.612;2023-12-04T11:05:03;98098.63;;;2.78;51.34
75146;BME280;63641;46.526;24.612;2023-12-04T11:07:33;98097.97;;;2.82;51.06
75146;BME280;63641;46.526;24.612;2023-12-04T11:10:24;98097.56;;;2.85;50.95
75146;BME280;63641;46.526;24.612;2023-12-04T11:12:57;98094.25;;;2.90;51.04
75146;BME280;63641;46.526;24.612;2023-12-04T11:15:27;98097.13;;;2.95;50.65
75146;BME280;63641;46.526;24.612;2023-12-04T11:17:59;98092.19;;;2.92;50.36
75146;BME280;63641;46.526;24.612;2023-12-04T11:20:32;98095.69;;;2.86;50.60
75146;BME280;63641;46.526;24.612;2023-12-04T11:23:03;98094.88;;;2.85;51.01
75146;BME280;63641;46.526;24.612;2023-12-04T11:25:32;98087.69;;;2.86;50.82
75146;BME280;63641;46.526;24.612;2023-12-04T11:28:02;98084.63;;;2.82;50.70
75146;BME280;63641;46.526;24.612;2023-12-04T11:30:29;98075.63;;;2.70;50.61
75146;BME280;63641;46.526;24.612;2023-12-04T11:32:57;98086.91;;;2.72;50.50
75146;BME280;63641;46.526;24.612;2023-12-04T11:35:27;98087.13;;;2.71;50.55
75146;BME280;63641;46.526;24.612;2023-12-04T11:37:55;98083.84;;;2.69;50.42
75146;BME280;63641;46.526;24.612;2023-12-04T11:40:22;98086.31;;;2.70;50.27
75146;BME280;63641;46.526;24.612;2023-12-04T11:42:49;98097.59;;;2.72;50.35
75146;BME280;63641;46.526;24.612;2023-12-04T11:45:19;98092.31;;;2.65;50.52
75146;BME280;63641;46.526;24.612;2023-12-04T11:47:51;98093.16;;;2.53;50.56
75146;BME280;63641;46.526;24.612;2023-12-04T11:50:19;98088.47;;;2.48;50.54
75146;BME280;63641;46.526;24.612;2023-12-04T11:52:47;98092.78;;;2.42;50.42
75146;BME280;63641;46.526;24.612;2023-12-04T11:55:20;98095.03;;;2.39;50.57
75146;BME280;63641;46.526;24.612;2023-12-04T11:57:49;98095.28;;;2.37;50.80
75146;BME280;63641;46.526;24.612;2023-12-04T12:05:42;98070.44;;;2.30;51.10
75146;BME280;63641;46.526;24.612;2023-12-04T12:08:10;98059.72;;;2.37;50.77
75146;BME280;63641;46.526;24.612;2023-12-04T12:10:37;98057.25;;;2.42;50.38
75146;BME280;63641;46.526;24.612;2023-12-04T12:13:04;98043.47;;;2.45;50.49
75146;BME280;63641;46.526;24.612;2023-12-04T12:15:32;98047.19;;;2.44;50.52
75146;BME280;63641;46.526;24.612;2023-12-04T12:18:00;98033.41;;;2.47;50.44
75146;BME280;63641;46.526;24.612;2023-12-04T12:20:27;98033.41;;;2.47;50.27
75146;BME280;63641;46.526;24.612;2023-12-04T12:22:55;98019.06;;;2.35;50.44
75146;BME280;63641;46.526;24.612;2023-12-04T12:25:23;98023.34;;;2.42;50.25
75146;BME280;63641;46.526;24.612;2023-12-04T12:27:50;98014.09;;;2.38;50.29
75146;BME280;63641;46.526;24.612;2023-12-04T12:30:17;98019.44;;;2.45;50.36
75146;BME280;63641;46.526;24.612;2023-12-04T12:32:45;98017.38;;;2.47;50.14
75146;BME280;63641;46.526;24.612;2023-12-04T12:35:12;98015.13;;;2.44;50.26
75146;BME280;63641;46.526;24.612;2023-12-04T12:37:39;98018.78;;;2.50;50.20
75146;BME280;63641;46.526;24.612;2023-12-04T12:40:07;98031.31;;;2.56;50.48
75146;BME280;63641;46.526;24.612;2023-12-04T12:42:37;98040.53;;;2.60;50.20
75146;BME280;63641;46.526;24.612;2023-12-04T12:45:11;98036.41;;;2.57;50.34
75146;BME280;63641;46.526;24.612;2023-12-04T12:47:42;98037.47;;;2.56;50.32
75146;BME280;63641;46.526;24.612;2023-12-04T12:50:11;98039.72;;;2.53;50.44
75146;BME280;63641;46.526;24.612;2023-12-04T12:52:42;98037.06;;;2.53;50.52
75146;BME280;63641;46.526;24.612;2023-12-04T12:55:09;98032.78;;;2.45;50.49
75146;BME280;63641;46.526;24.612;2023-12-04T12:57:37;98026.06;;;2.36;50.59
75146;BME280;63641;46.526;24.612;2023-12-04T13:00:05;98043.44;;;2.52;50.38
75146;BME280;63641;46.526;24.612;2023-12-04T13:02:37;98031.94;;;2.51;50.31
75146;BME280;63641;46.526;24.612;2023-12-04T13:05:05;98039.53;;;2.54;50.27